| time (UTC) | temp F | wind direction | speed knots | gust knots | rain 1hr in | rain 24hr in | rain mn in | humidity % | barometer mb |
| 20260510072249 | 54 | 309 | 0.9 | 1.7 | 0.00 | 0.00 | 0.00 | 97 | 1007.5 |
| 20260510071207 | 54 | 309 | 0.9 | 0.9 | 0.00 | 0.00 | 0.00 | 97 | 1007.5 |
| 20260510070229 | 54 | 335 | 0.9 | 0.9 | 0.00 | 0.00 | 0.00 | 97 | 1007.3 |
| 20260510065205 | 54 | 328 | 0.0 | 1.7 | 0.00 | 0.00 | 0.00 | 97 | 1008.1 |
| 20260510064207 | 53 | 337 | 0.9 | 1.7 | 0.00 | 0.00 | 0.00 | 97 | 1008.6 |
| 20260510063125 | 53 | 300 | 0.0 | 0.0 | 0.00 | 0.00 | 0.00 | 96 | 1008.2 |
| 20260510062250 | 53 | 300 | 0.0 | 0.0 | 0.00 | 0.00 | 0.00 | 96 | 1007.7 |
| 20260510061205 | 53 | 300 | 0.0 | 0.9 | 0.00 | 0.00 | 0.00 | 96 | 1007.7 |
| 20260510060247 | 53 | 300 | 0.0 | 0.9 | 0.00 | 0.00 | 0.00 | 96 | 1007.9 |
| 20260510055145 | 54 | 295 | 0.9 | 1.7 | 0.00 | 0.00 | 0.00 | 96 | 1007.9 |
| 20260510054207 | 54 | 315 | 0.9 | 0.9 | 0.00 | 0.00 | 0.00 | 96 | 1008.0 |
| 20260510053123 | 54 | 32 | 0.9 | 0.9 | 0.00 | 0.00 | 0.00 | 96 | 1008.8 |
| 20260510052308 | 54 | 0 | 0.9 | 0.9 | 0.00 | 0.00 | 0.00 | 96 | 1008.5 |
| 20260510051207 | 54 | 19 | 0.9 | 0.9 | 0.00 | 0.00 | 0.00 | 96 | 1007.7 |
| 20260510050229 | 54 | 15 | 0.9 | 0.9 | 0.00 | 0.00 | 0.00 | 96 | 1008.4 |
| 20260510045147 | 54 | 14 | 0.0 | 0.9 | 0.00 | 0.00 | 0.00 | 96 | 1008.5 |
| 20260510044208 | 53 | 12 | 0.0 | 0.9 | 0.00 | 0.00 | 0.00 | 96 | 1008.3 |
| 20260510043127 | 53 | 16 | 0.0 | 1.7 | 0.00 | 0.00 | 0.00 | 96 | 1007.9 |
| 20260510042312 | 53 | 300 | 0.0 | 0.0 | 0.00 | 0.00 | 0.00 | 96 | 1007.6 |
| 20260510041210 | 53 | 300 | 0.0 | 0.0 | 0.00 | 0.00 | 0.00 | 95 | 1007.5 |
| 20260510040252 | 53 | 300 | 0.0 | 0.0 | 0.00 | 0.00 | 0.00 | 95 | 1007.4 |
| 20260510035150 | 53 | 300 | 0.0 | 0.9 | 0.00 | 0.00 | 0.00 | 95 | 1007.5 |
| 20260510034211 | 53 | 299 | 0.9 | 0.9 | 0.00 | 0.00 | 0.00 | 95 | 1007.6 |
| 20260510033129 | 53 | 299 | 0.0 | 0.9 | 0.00 | 0.00 | 0.00 | 94 | 1007.6 |
| 20260510032254 | 54 | 300 | 0.0 | 0.9 | 0.00 | 0.00 | 0.00 | 94 | 1007.7 |
| 20260510031212 | 54 | 300 | 0.9 | 1.7 | 0.00 | 0.00 | 0.00 | 94 | 1007.7 |
| 20260510030234 | 54 | 326 | 0.0 | 1.7 | 0.00 | 0.00 | 0.00 | 93 | 1007.8 |
| 20260510025152 | 55 | 32 | 0.0 | 2.6 | 0.00 | 0.00 | 0.00 | 92 | 1008.7 |
| 20260510024214 | 55 | 26 | 0.9 | 1.7 | 0.00 | 0.00 | 0.00 | 91 | 1008.6 |
| 20260510023131 | 55 | 45 | 0.9 | 2.6 | 0.00 | 0.00 | 0.00 | 90 | 1008.7 |
| 20260510022256 | 56 | 44 | 0.9 | 3.5 | 0.00 | 0.00 | 0.00 | 86 | 1008.6 |
| 20260510021209 | 60 | 16 | 2.6 | 8.7 | 0.00 | 0.00 | 0.00 | 72 | 1008.4 |
| 20260510020231 | 61 | 10 | 0.9 | 1.7 | 0.00 | 0.00 | 0.00 | 65 | 1007.1 |
| 20260510015148 | 61 | 318 | 0.9 | 1.7 | 0.00 | 0.00 | 0.00 | 64 | 1006.3 |
| 20260510014250 | 61 | 296 | 0.9 | 1.7 | 0.00 | 0.00 | 0.00 | 64 | 1006.0 |
| 20260510013128 | 61 | 306 | 0.0 | 1.7 | 0.00 | 0.00 | 0.00 | 64 | 1005.9 |
| 20260510012253 | 61 | 283 | 0.9 | 2.6 | 0.00 | 0.00 | 0.00 | 64 | 1005.5 |
| 20260510011211 | 61 | 295 | 0.9 | 1.7 | 0.00 | 0.00 | 0.00 | 63 | 1005.7 |
| 20260510010233 | 61 | 323 | 0.0 | 0.9 | 0.00 | 0.00 | 0.00 | 63 | 1005.6 |
| 20260510005151 | 61 | 317 | 0.9 | 0.9 | 0.00 | 0.00 | 0.00 | 62 | 1005.5 |
| 20260510004313 | 62 | 304 | 0.9 | 1.7 | 0.00 | 0.00 | 0.00 | 60 | 1005.6 |
| 20260510003151 | 62 | 273 | 0.9 | 2.6 | 0.00 | 0.00 | 0.00 | 59 | 1005.5 |
| 20260510002256 | 63 | 294 | 0.9 | 3.5 | 0.00 | 0.00 | 0.00 | 57 | 1005.3 |
| 20260510001214 | 64 | 278 | 1.7 | 2.6 | 0.00 | 0.00 | 0.00 | 56 | 1005.3 |
| 20260510000236 | 64 | 268 | 1.7 | 3.5 | 0.00 | 0.00 | 0.00 | 54 | 1005.2 |
| 20260509235154 | 64 | 271 | 1.7 | 3.5 | 0.00 | 0.00 | 0.00 | 54 | 1004.9 |
| 20260509234236 | 65 | 268 | 0.9 | 2.6 | 0.00 | 0.00 | 0.00 | 54 | 1004.9 |
| 20260509233134 | 65 | 259 | 1.7 | 5.2 | 0.00 | 0.00 | 0.00 | 54 | 1005.0 |
| 20260509232258 | 65 | 276 | 2.6 | 7.0 | 0.00 | 0.00 | 0.00 | 54 | 1005.0 |
| 20260509231216 | 66 | 251 | 1.7 | 5.2 | 0.00 | 0.00 | 0.00 | 54 | 1005.0 |
| 20260509230238 | 67 | 272 | 1.7 | 7.8 | 0.00 | 0.00 | 0.00 | 53 | 1004.8 |
| 20260509225155 | 67 | 259 | 2.6 | 7.0 | 0.00 | 0.00 | 0.00 | 52 | 1004.7 |
| 20260509224217 | 67 | 260 | 2.6 | 7.8 | 0.00 | 0.00 | 0.00 | 52 | 1004.6 |
| 20260509223135 | 68 | 275 | 2.6 | 6.1 | 0.00 | 0.00 | 0.00 | 50 | 1004.7 |
| 20260509222301 | 68 | 263 | 1.7 | 7.0 | 0.00 | 0.00 | 0.00 | 51 | 1004.6 |
| 20260509221217 | 68 | 261 | 2.6 | 5.2 | 0.00 | 0.00 | 0.00 | 52 | 1004.7 |
| 20260509220239 | 68 | 260 | 2.6 | 5.2 | 0.00 | 0.00 | 0.00 | 50 | 1004.9 |
| 20260509215157 | 69 | 273 | 2.6 | 5.2 | 0.00 | 0.00 | 0.00 | 49 | 1005.1 |
| 20260509214219 | 68 | 271 | 3.5 | 7.8 | 0.00 | 0.00 | 0.00 | 50 | 1005.0 |
| 20260509213137 | 67 | 269 | 1.7 | 7.8 | 0.00 | 0.00 | 0.00 | 53 | 1005.0 |
| 20260509212305 | 66 | 265 | 1.7 | 7.8 | 0.00 | 0.00 | 0.00 | 55 | 1005.2 |
| 20260509211220 | 66 | 258 | 1.7 | 5.2 | 0.00 | 0.00 | 0.00 | 56 | 1005.2 |
| 20260509210241 | 66 | 254 | 1.7 | 3.5 | 0.00 | 0.00 | 0.00 | 56 | 1005.4 |
| 20260509205159 | 68 | 257 | 1.7 | 3.5 | 0.00 | 0.00 | 0.00 | 55 | 1005.4 |
| 20260509204221 | 68 | 252 | 2.6 | 6.1 | 0.00 | 0.00 | 0.00 | 54 | 1005.5 |
| 20260509203139 | 65 | 223 | 3.5 | 6.1 | 0.00 | 0.00 | 0.00 | 55 | 1005.7 |
| 20260509202200 | 66 | 249 | 2.6 | 9.6 | 0.00 | 0.00 | 0.00 | 57 | 1005.6 |
| 20260509201222 | 66 | 248 | 1.7 | 3.5 | 0.00 | 0.00 | 0.00 | 57 | 1005.8 |
| 20260509200243 | 66 | 244 | 2.6 | 9.6 | 0.00 | 0.00 | 0.00 | 59 | 1005.9 |
| 20260509195241 | 64 | 272 | 2.6 | 6.1 | 0.00 | 0.00 | 0.00 | 61 | 1006.2 |
| 20260509194220 | 64 | 264 | 2.6 | 8.7 | 0.00 | 0.00 | 0.00 | 62 | 1006.2 |
| 20260509193138 | 65 | 258 | 2.6 | 8.7 | 0.00 | 0.00 | 0.00 | 61 | 1006.4 |
| 20260509192220 | 65 | 272 | 1.7 | 5.2 | 0.00 | 0.00 | 0.00 | 61 | 1006.3 |
| 20260509191221 | 65 | 239 | 2.6 | 6.1 | 0.00 | 0.00 | 0.00 | 62 | 1006.4 |
| 20260509190242 | 65 | 262 | 2.6 | 8.7 | 0.00 | 0.00 | 0.00 | 62 | 1006.6 |
| 20260509185201 | 64 | 265 | 3.5 | 9.6 | 0.00 | 0.00 | 0.00 | 65 | 1006.7 |
| 20260509184222 | 64 | 251 | 2.6 | 7.8 | 0.00 | 0.00 | 0.00 | 64 | 1006.7 |
| 20260509183141 | 62 | 229 | 2.6 | 6.1 | 0.00 | 0.00 | 0.00 | 67 | 1006.8 |
| 20260509182202 | 62 | 239 | 2.6 | 6.1 | 0.00 | 0.00 | 0.00 | 66 | 1006.8 |
| 20260509181223 | 61 | 257 | 1.7 | 3.5 | 0.00 | 0.00 | 0.00 | 70 | 1006.9 |
| 20260509180245 | 61 | 254 | 1.7 | 6.1 | 0.00 | 0.00 | 0.00 | 71 | 1007.0 |
| 20260509175223 | 60 | 272 | 2.6 | 3.5 | 0.00 | 0.00 | 0.00 | 72 | 1006.9 |
| 20260509174224 | 59 | 300 | 0.9 | 2.6 | 0.00 | 0.00 | 0.00 | 74 | 1007.0 |
| 20260509173202 | 59 | 297 | 1.7 | 6.1 | 0.00 | 0.00 | 0.00 | 74 | 1007.0 |
| 20260509172204 | 59 | 272 | 2.6 | 6.1 | 0.00 | 0.00 | 0.00 | 75 | 1007.0 |
| 20260509171225 | 60 | 276 | 1.7 | 3.5 | 0.00 | 0.00 | 0.00 | 72 | 1006.9 |
| 20260509170246 | 60 | 278 | 2.6 | 3.5 | 0.00 | 0.00 | 0.00 | 72 | 1006.8 |
| 20260509165204 | 60 | 289 | 1.7 | 6.1 | 0.00 | 0.00 | 0.00 | 73 | 1006.8 |
| 20260509164226 | 60 | 296 | 1.7 | 1.7 | 0.00 | 0.00 | 0.00 | 74 | 1006.8 |
| 20260509163143 | 61 | 282 | 1.7 | 5.2 | 0.00 | 0.00 | 0.00 | 74 | 1006.8 |
| 20260509162205 | 59 | 246 | 1.7 | 5.2 | 0.00 | 0.00 | 0.00 | 75 | 1006.6 |
| 20260509161246 | 59 | 296 | 1.7 | 6.1 | 0.00 | 0.00 | 0.00 | 77 | 1006.6 |
| 20260509160308 | 58 | 253 | 2.6 | 5.2 | 0.00 | 0.00 | 0.00 | 80 | 1006.6 |
| 20260509155226 | 58 | 289 | 1.7 | 5.2 | 0.00 | 0.00 | 0.00 | 82 | 1006.5 |
| 20260509154228 | 57 | 266 | 1.7 | 5.2 | 0.00 | 0.00 | 0.00 | 83 | 1006.6 |
| 20260509153146 | 56 | 284 | 0.9 | 3.5 | 0.00 | 0.00 | 0.00 | 86 | 1006.5 |
| 20260509152207 | 55 | 276 | 1.7 | 5.2 | 0.00 | 0.00 | 0.00 | 86 | 1006.5 |
| 20260509151228 | 55 | 290 | 0.9 | 3.5 | 0.00 | 0.00 | 0.00 | 89 | 1006.3 |
| 20260509150146 | 53 | 300 | 0.9 | 1.7 | 0.00 | 0.00 | 0.00 | 90 | 1006.7 |
| 20260509145208 | 54 | 282 | 0.9 | 2.6 | 0.00 | 0.00 | 0.00 | 90 | 1006.7 |
| 20260509144230 | 54 | 308 | 1.7 | 5.2 | 0.00 | 0.00 | 0.00 | 90 | 1006.7 |
| 20260509143208 | 54 | 278 | 1.7 | 3.5 | 0.00 | 0.00 | 0.00 | 91 | 1006.6 |
| 20260509142106 | 53 | 283 | 0.9 | 1.7 | 0.00 | 0.00 | 0.00 | 92 | 1006.5 |
| 20260509141231 | 53 | 274 | 1.7 | 7.8 | 0.00 | 0.00 | 0.00 | 92 | 1006.6 |
| 20260509140149 | 53 | 298 | 1.7 | 6.1 | 0.00 | 0.00 | 0.00 | 92 | 1006.6 |
| 20260509135211 | 52 | 282 | 0.9 | 2.6 | 0.00 | 0.00 | 0.00 | 92 | 1006.6 |
| 20260509134127 | 52 | 287 | 1.7 | 2.6 | 0.00 | 0.00 | 0.00 | 93 | 1006.6 |
| 20260509133209 | 52 | 307 | 0.9 | 1.7 | 0.00 | 0.00 | 0.00 | 93 | 1006.7 |
| 20260509132107 | 52 | 295 | 0.9 | 2.6 | 0.00 | 0.00 | 0.00 | 94 | 1006.7 |
| 20260509131233 | 52 | 292 | 0.9 | 3.5 | 0.00 | 0.00 | 0.00 | 94 | 1006.8 |
| 20260509130151 | 51 | 288 | 0.9 | 2.6 | 0.00 | 0.00 | 0.00 | 94 | 1006.8 |
| 20260509125212 | 51 | 282 | 0.9 | 6.1 | 0.00 | 0.00 | 0.00 | 94 | 1006.9 |
| 20260509124150 | 51 | 242 | 1.7 | 2.6 | 0.00 | 0.00 | 0.00 | 94 | 1006.9 |
| 20260509123152 | 51 | 292 | 1.7 | 2.6 | 0.00 | 0.00 | 0.00 | 93 | 1007.0 |
| 20260509122130 | 51 | 272 | 1.7 | 2.6 | 0.00 | 0.00 | 0.00 | 93 | 1007.1 |
| 20260509121235 | 51 | 296 | 0.9 | 3.5 | 0.00 | 0.00 | 0.00 | 94 | 1007.1 |
| 20260509120152 | 51 | 292 | 0.9 | 2.6 | 0.00 | 0.00 | 0.00 | 93 | 1007.1 |
| 20260509115234 | 51 | 290 | 0.9 | 2.6 | 0.00 | 0.00 | 0.00 | 93 | 1007.0 |
| 20260509114132 | 51 | 312 | 0.9 | 2.6 | 0.00 | 0.00 | 0.00 | 93 | 1006.9 |
| 20260509113154 | 51 | 281 | 0.9 | 3.5 | 0.00 | 0.00 | 0.00 | 93 | 1006.9 |
| 20260509112112 | 51 | 288 | 0.9 | 2.6 | 0.00 | 0.00 | 0.00 | 93 | 1006.9 |
| 20260509111237 | 51 | 282 | 0.9 | 3.5 | 0.00 | 0.00 | 0.00 | 92 | 1006.8 |
| 20260509110156 | 51 | 292 | 0.9 | 3.5 | 0.00 | 0.00 | 0.00 | 92 | 1006.7 |
| 20260509105217 | 51 | 271 | 1.7 | 6.1 | 0.00 | 0.00 | 0.00 | 91 | 1006.7 |
| 20260509104132 | 51 | 283 | 0.9 | 2.6 | 0.00 | 0.00 | 0.00 | 90 | 1006.6 |
| 20260509103153 | 51 | 296 | 0.9 | 3.5 | 0.00 | 0.00 | 0.00 | 90 | 1006.6 |
| 20260509102112 | 51 | 288 | 0.9 | 2.6 | 0.00 | 0.00 | 0.00 | 90 | 1006.6 |
| 20260509101237 | 51 | 279 | 0.9 | 3.5 | 0.00 | 0.00 | 0.00 | 90 | 1006.6 |
| 20260509100155 | 51 | 280 | 0.9 | 2.6 | 0.00 | 0.00 | 0.00 | 90 | 1006.6 |
| 20260509095216 | 51 | 288 | 0.9 | 2.6 | 0.00 | 0.00 | 0.00 | 91 | 1006.7 |
| 20260509094155 | 51 | 287 | 0.9 | 1.7 | 0.00 | 0.00 | 0.00 | 91 | 1006.8 |
| 20260509093157 | 50 | 308 | 0.9 | 3.5 | 0.00 | 0.00 | 0.00 | 93 | 1006.8 |
| 20260509092115 | 50 | 283 | 0.9 | 1.7 | 0.00 | 0.00 | 0.00 | 96 | 1007.1 |
| 20260509091156 | 49 | 329 | 0.9 | 1.7 | 0.00 | 0.00 | 0.00 | 96 | 1007.0 |
| 20260509090158 | 49 | 0.0 | 0.0 | 0.00 | 0.00 | 0.00 | 96 | 1007.1 | |
| 20260509085220 | 49 | 0.0 | 0.0 | 0.00 | 0.00 | 0.00 | 96 | 1007.1 | |
| 20260509084137 | 49 | 0.0 | 0.0 | 0.00 | 0.00 | 0.00 | 96 | 1007.3 | |
| 20260509083159 | 49 | 24 | 0.0 | 0.9 | 0.00 | 0.00 | 0.00 | 96 | 1007.2 |
| 20260509082138 | 49 | 0.0 | 0.0 | 0.00 | 0.00 | 0.00 | 96 | 1007.4 | |
| 20260509081139 | 49 | 0.0 | 0.0 | 0.00 | 0.00 | 0.00 | 96 | 1007.3 | |
| 20260509080159 | 49 | 0.0 | 0.0 | 0.00 | 0.00 | 0.00 | 96 | 1007.2 | |
| 20260509075221 | 49 | 24 | 0.0 | 0.9 | 0.00 | 0.00 | 0.00 | 96 | 1007.3 |
| 20260509074139 | 49 | 0.0 | 0.0 | 0.00 | 0.00 | 0.00 | 96 | 1007.3 | |
| 20260509073221 | 49 | 0.0 | 0.0 | 0.00 | 0.00 | 0.00 | 96 | 1007.3 |